createdAt,value
2019-04-03T11:28:37.891Z,65.70
2019-04-03T11:31:30.056Z,64.80
2019-04-03T11:34:22.167Z,62.50
2019-04-03T11:37:13.876Z,62.20
2019-04-03T11:40:07.824Z,58.50
2019-04-03T11:42:59.459Z,57.30
2019-04-03T11:45:51.035Z,60.10
2019-04-03T11:48:43.813Z,63.10
2019-04-03T11:51:35.416Z,59.90
2019-04-03T11:54:26.875Z,58.00
2019-04-03T11:57:18.546Z,57.20
2019-04-03T12:00:15.606Z,62.90
2019-04-03T12:03:07.088Z,59.70
2019-04-03T12:05:58.931Z,57.40
2019-04-03T12:08:50.703Z,53.80
2019-04-03T12:11:42.311Z,52.00
2019-04-03T12:14:33.841Z,53.20
2019-04-03T12:17:28.780Z,55.40
2019-04-03T12:20:19.789Z,56.00
2019-04-03T12:23:11.723Z,55.10
2019-04-03T12:26:03.806Z,57.00
2019-04-03T12:28:55.612Z,58.70
2019-04-03T12:31:47.196Z,59.40
2019-04-03T12:34:38.677Z,61.20
2019-04-03T12:37:30.354Z,64.20
2019-04-03T12:40:22.518Z,66.50
2019-04-03T12:43:14.931Z,65.90
2019-04-03T12:46:06.319Z,65.70
2019-04-03T12:48:57.892Z,66.40
2019-04-03T12:51:49.834Z,67.20
2019-04-03T12:54:41.631Z,65.00
2019-04-03T12:57:33.869Z,64.50
2019-04-03T13:00:27.236Z,59.60
2019-04-03T13:03:19.447Z,58.90
2019-04-03T13:06:11.302Z,59.60
2019-04-03T13:09:05.243Z,60.10
2019-04-03T13:11:56.696Z,64.40
2019-04-03T13:14:49.439Z,58.60
2019-04-03T13:17:43.589Z,58.30
2019-04-03T13:20:36.671Z,59.00
2019-04-03T13:23:27.710Z,58.30
2019-04-03T13:26:19.229Z,55.80
2019-04-03T13:29:10.680Z,50.40
2019-04-03T13:32:02.444Z,48.00
2019-04-03T13:34:53.850Z,49.40
2019-04-03T13:37:45.517Z,45.90
2019-04-03T13:40:38.987Z,47.60
2019-04-03T13:43:30.740Z,47.00
2019-04-03T13:46:22.283Z,44.20
2019-04-03T13:49:17.174Z,44.60
2019-04-03T13:52:09.793Z,41.10
2019-04-03T13:55:01.418Z,42.10
2019-04-03T13:57:53.583Z,43.20
2019-04-03T14:00:57.823Z,42.30
2019-04-03T14:03:38.462Z,43.30
2019-04-03T14:06:29.920Z,46.70
2019-04-03T14:09:21.734Z,49.20
2019-04-03T14:12:13.616Z,51.10
2019-04-03T14:15:06.521Z,53.10
2019-04-03T14:17:59.147Z,54.20
2019-04-03T14:20:52.058Z,54.60
2019-04-03T14:23:44.219Z,57.30
2019-04-03T14:26:35.921Z,58.80
2019-04-03T14:29:29.165Z,60.80
2019-04-03T14:32:22.133Z,63.20
2019-04-03T14:35:41.926Z,64.10
2019-04-03T14:38:07.745Z,68.70
2019-04-03T14:40:59.826Z,68.10
2019-04-03T14:43:51.177Z,69.10
2019-04-03T14:46:42.681Z,83.90
2019-04-03T14:49:35.066Z,99.30
2019-04-03T14:52:26.354Z,99.90
2019-04-03T14:55:22.370Z,99.90
2019-04-03T14:58:12.076Z,99.90
2019-04-03T15:01:03.530Z,99.90
2019-04-03T15:03:54.810Z,99.90
2019-04-03T15:06:47.515Z,99.90
2019-04-03T15:09:39.963Z,99.90
2019-04-03T15:12:31.266Z,99.90
2019-04-03T15:15:24.778Z,99.90
2019-04-03T15:18:18.675Z,99.90
2019-04-03T15:21:10.098Z,99.90
2019-04-03T15:24:01.549Z,99.90
2019-04-03T15:26:53.481Z,99.90
2019-04-03T15:29:45.761Z,99.90
2019-04-03T15:32:37.718Z,99.90
2019-04-03T15:35:29.870Z,99.90
2019-04-03T15:38:23.117Z,99.90
2019-04-03T15:41:14.951Z,99.90
2019-04-03T15:44:06.414Z,99.90
2019-04-03T15:47:00.738Z,99.90
2019-04-03T15:49:51.152Z,99.90
2019-04-03T15:52:43.969Z,99.90
2019-04-03T15:55:37.962Z,99.90
2019-04-03T15:58:29.904Z,99.90
